sensor_id;sensor_type;location;lat;lon;timestamp;P1;durP1;ratioP1;P2;durP2;ratioP2
46713;SDS011;32445;51.376;10.874;2023-04-24T08:01:18;1.67;;;0.65;;
46713;SDS011;32445;51.376;10.874;2023-04-24T08:04:18;2.03;;;0.77;;
46713;SDS011;32445;51.376;10.874;2023-04-24T08:07:18;1.13;;;0.70;;
46713;SDS011;32445;51.376;10.874;2023-04-24T08:10:19;0.70;;;0.70;;
46713;SDS011;32445;51.376;10.874;2023-04-24T08:13:21;0.70;;;0.70;;
46713;SDS011;32445;51.376;10.874;2023-04-24T08:16:22;0.65;;;0.65;;
46713;SDS011;32445;51.376;10.874;2023-04-24T08:19:23;1.45;;;0.90;;
46713;SDS011;32445;51.376;10.874;2023-04-24T08:22:25;0.82;;;0.82;;
46713;SDS011;32445;51.376;10.874;2023-04-24T08:25:25;1.13;;;0.77;;
46713;SDS011;32445;51.376;10.874;2023-04-24T08:28:26;0.80;;;0.80;;
46713;SDS011;32445;51.376;10.874;2023-04-24T08:31:26;1.00;;;0.70;;
46713;SDS011;32445;51.376;10.874;2023-04-24T08:34:26;1.15;;;0.80;;
46713;SDS011;32445;51.376;10.874;2023-04-24T08:37:27;2.10;;;0.88;;
46713;SDS011;32445;51.376;10.874;2023-04-24T08:40:28;1.23;;;1.00;;
46713;SDS011;32445;51.376;10.874;2023-04-24T08:43:29;0.80;;;0.80;;
46713;SDS011;32445;51.376;10.874;2023-04-24T08:46:33;1.23;;;0.68;;
46713;SDS011;32445;51.376;10.874;2023-04-24T08:49:33;1.20;;;1.10;;
46713;SDS011;32445;51.376;10.874;2023-04-24T08:52:36;1.50;;;0.65;;
46713;SDS011;32445;51.376;10.874;2023-04-24T08:55:39;4.13;;;1.00;;
46713;SDS011;32445;51.376;10.874;2023-04-24T08:58:41;0.77;;;0.77;;
46713;SDS011;32445;51.376;10.874;2023-04-24T09:01:42;1.52;;;0.90;;
46713;SDS011;32445;51.376;10.874;2023-04-24T09:04:45;1.60;;;0.90;;
46713;SDS011;32445;51.376;10.874;2023-04-24T09:10:51;1.27;;;0.82;;
46713;SDS011;32445;51.376;10.874;2023-04-24T09:13:52;0.77;;;0.77;;
46713;SDS011;32445;51.376;10.874;2023-04-24T09:16:53;1.00;;;0.80;;
46713;SDS011;32445;51.376;10.874;2023-04-24T09:19:53;1.83;;;1.00;;
46713;SDS011;32445;51.376;10.874;2023-04-24T09:22:54;1.00;;;0.90;;
46713;SDS011;32445;51.376;10.874;2023-04-24T09:25:56;0.80;;;0.80;;
46713;SDS011;32445;51.376;10.874;2023-04-24T09:28:58;0.60;;;0.60;;
46713;SDS011;32445;51.376;10.874;2023-04-24T09:31:58;0.87;;;0.87;;
46713;SDS011;32445;51.376;10.874;2023-04-24T09:35:32;8.30;;;0.87;;
46713;SDS011;32445;51.376;10.874;2023-04-24T09:41:34;0.98;;;0.68;;
46713;SDS011;32445;51.376;10.874;2023-04-24T09:44:34;0.70;;;0.70;;
46713;SDS011;32445;51.376;10.874;2023-04-24T09:47:38;1.60;;;0.97;;
46713;SDS011;32445;51.376;10.874;2023-04-24T09:50:39;1.42;;;0.82;;
46713;SDS011;32445;51.376;10.874;2023-04-24T09:53:46;1.92;;;1.20;;
46713;SDS011;32445;51.376;10.874;2023-04-24T09:56:48;2.05;;;1.65;;
46713;SDS011;32445;51.376;10.874;2023-04-24T09:59:49;4.45;;;0.95;;
46713;SDS011;32445;51.376;10.874;2023-04-24T10:06:03;0.93;;;0.90;;
46713;SDS011;32445;51.376;10.874;2023-04-24T10:09:09;0.75;;;0.70;;
46713;SDS011;32445;51.376;10.874;2023-04-24T10:12:11;1.17;;;0.90;;
46713;SDS011;32445;51.376;10.874;2023-04-24T10:15:12;2.47;;;1.30;;
46713;SDS011;32445;51.376;10.874;2023-04-24T10:18:13;2.60;;;1.00;;
46713;SDS011;32445;51.376;10.874;2023-04-24T10:24:17;1.95;;;1.10;;
46713;SDS011;32445;51.376;10.874;2023-04-24T10:27:18;2.70;;;1.10;;
46713;SDS011;32445;51.376;10.874;2023-04-24T10:30:21;6.22;;;1.35;;
46713;SDS011;32445;51.376;10.874;2023-04-24T10:33:21;1.13;;;1.03;;
46713;SDS011;32445;51.376;10.874;2023-04-24T10:36:23;1.40;;;0.98;;
46713;SDS011;32445;51.376;10.874;2023-04-24T10:39:26;6.07;;;1.60;;
46713;SDS011;32445;51.376;10.874;2023-04-24T10:42:27;2.60;;;1.07;;
46713;SDS011;32445;51.376;10.874;2023-04-24T10:45:28;1.67;;;1.23;;
46713;SDS011;32445;51.376;10.874;2023-04-24T10:48:28;1.50;;;1.27;;
46713;SDS011;32445;51.376;10.874;2023-04-24T10:54:47;2.58;;;1.45;;
46713;SDS011;32445;51.376;10.874;2023-04-24T10:58:01;1.47;;;1.23;;
46713;SDS011;32445;51.376;10.874;2023-04-24T11:01:02;1.38;;;1.27;;
46713;SDS011;32445;51.376;10.874;2023-04-24T11:04:03;2.87;;;1.23;;
46713;SDS011;32445;51.376;10.874;2023-04-24T11:07:03;1.90;;;1.50;;
46713;SDS011;32445;51.376;10.874;2023-04-24T11:10:04;2.87;;;1.50;;
46713;SDS011;32445;51.376;10.874;2023-04-24T11:13:05;2.03;;;1.40;;
46713;SDS011;32445;51.376;10.874;2023-04-24T11:16:14;4.53;;;1.80;;
46713;SDS011;32445;51.376;10.874;2023-04-24T11:19:24;1.55;;;1.45;;
46713;SDS011;32445;51.376;10.874;2023-04-24T11:22:25;1.55;;;1.45;;
46713;SDS011;32445;51.376;10.874;2023-04-24T11:25:30;1.55;;;1.27;;
46713;SDS011;32445;51.376;10.874;2023-04-24T11:28:31;1.35;;;1.25;;
46713;SDS011;32445;51.376;10.874;2023-04-24T11:31:39;1.10;;;1.10;;
46713;SDS011;32445;51.376;10.874;2023-04-24T11:34:41;2.17;;;1.27;;
46713;SDS011;32445;51.376;10.874;2023-04-24T11:37:46;2.08;;;1.42;;
46713;SDS011;32445;51.376;10.874;2023-04-24T11:40:51;1.40;;;1.30;;
46713;SDS011;32445;51.376;10.874;2023-04-24T11:43:52;1.20;;;1.10;;
46713;SDS011;32445;51.376;10.874;2023-04-24T11:46:55;3.80;;;1.25;;
46713;SDS011;32445;51.376;10.874;2023-04-24T11:49:56;1.33;;;1.25;;
46713;SDS011;32445;51.376;10.874;2023-04-24T11:56:03;0.73;;;0.73;;
46713;SDS011;32445;51.376;10.874;2023-04-24T11:59:04;4.68;;;1.25;;
46713;SDS011;32445;51.376;10.874;2023-04-24T12:02:05;2.60;;;1.47;;
46713;SDS011;32445;51.376;10.874;2023-04-24T12:05:06;1.88;;;0.70;;
46713;SDS011;32445;51.376;10.874;2023-04-24T12:08:07;2.93;;;1.17;;
46713;SDS011;32445;51.376;10.874;2023-04-24T12:11:07;2.17;;;0.90;;
46713;SDS011;32445;51.376;10.874;2023-04-24T12:14:11;1.17;;;0.80;;
46713;SDS011;32445;51.376;10.874;2023-04-24T12:17:12;0.88;;;0.77;;
46713;SDS011;32445;51.376;10.874;2023-04-24T12:20:12;0.90;;;0.90;;
46713;SDS011;32445;51.376;10.874;2023-04-24T12:23:14;3.63;;;0.90;;
46713;SDS011;32445;51.376;10.874;2023-04-24T12:26:18;2.33;;;0.80;;
46713;SDS011;32445;51.376;10.874;2023-04-24T12:29:20;1.02;;;0.70;;
46713;SDS011;32445;51.376;10.874;2023-04-24T12:32:21;1.10;;;1.00;;
46713;SDS011;32445;51.376;10.874;2023-04-24T12:35:22;1.17;;;0.80;;
46713;SDS011;32445;51.376;10.874;2023-04-24T12:38:24;2.33;;;0.70;;
46713;SDS011;32445;51.376;10.874;2023-04-24T12:41:26;0.88;;;0.50;;
46713;SDS011;32445;51.376;10.874;2023-04-24T12:44:33;0.60;;;0.50;;
46713;SDS011;32445;51.376;10.874;2023-04-24T12:47:34;0.90;;;0.30;;
46713;SDS011;32445;51.376;10.874;2023-04-24T12:50:35;1.00;;;0.60;;
46713;SDS011;32445;51.376;10.874;2023-04-24T12:53:35;1.90;;;0.40;;
46713;SDS011;32445;51.376;10.874;2023-04-24T12:56:35;0.50;;;0.20;;
46713;SDS011;32445;51.376;10.874;2023-04-24T12:59:39;0.43;;;0.20;;
46713;SDS011;32445;51.376;10.874;2023-04-24T13:02:39;0.30;;;0.20;;
46713;SDS011;32445;51.376;10.874;2023-04-24T13:05:40;1.57;;;0.20;;
46713;SDS011;32445;51.376;10.874;2023-04-24T13:08:42;0.38;;;0.38;;
46713;SDS011;32445;51.376;10.874;2023-04-24T13:11:42;2.50;;;0.30;;
46713;SDS011;32445;51.376;10.874;2023-04-24T13:14:42;0.33;;;0.30;;
46713;SDS011;32445;51.376;10.874;2023-04-24T13:17:43;0.30;;;0.30;;
46713;SDS011;32445;51.376;10.874;2023-04-24T13:20:43;1.33;;;0.40;;
46713;SDS011;32445;51.376;10.874;2023-04-24T13:23:44;2.63;;;0.40;;
46713;SDS011;32445;51.376;10.874;2023-04-24T13:26:44;0.30;;;0.30;;
46713;SDS011;32445;51.376;10.874;2023-04-24T13:29:44;0.40;;;0.40;;
46713;SDS011;32445;51.376;10.874;2023-04-24T13:32:45;0.33;;;0.33;;
46713;SDS011;32445;51.376;10.874;2023-04-24T13:35:45;1.60;;;0.20;;
46713;SDS011;32445;51.376;10.874;2023-04-24T13:38:46;0.43;;;0.30;;
46713;SDS011;32445;51.376;10.874;2023-04-24T13:41:46;0.37;;;0.30;;
46713;SDS011;32445;51.376;10.874;2023-04-24T13:47:48;0.30;;;0.30;;
46713;SDS011;32445;51.376;10.874;2023-04-24T13:50:48;0.20;;;0.20;;
46713;SDS011;32445;51.376;10.874;2023-04-24T13:53:49;3.43;;;0.40;;
46713;SDS011;32445;51.376;10.874;2023-04-24T13:56:49;0.20;;;0.20;;
46713;SDS011;32445;51.376;10.874;2023-04-24T13:59:51;0.22;;;0.22;;
46713;SDS011;32445;51.376;10.874;2023-04-24T14:02:52;0.37;;;0.20;;
46713;SDS011;32445;51.376;10.874;2023-04-24T14:05:52;7.17;;;0.20;;
46713;SDS011;32445;51.376;10.874;2023-04-24T14:08:52;0.20;;;0.10;;
46713;SDS011;32445;51.376;10.874;2023-04-24T14:11:52;0.43;;;0.43;;
46713;SDS011;32445;51.376;10.874;2023-04-24T14:14:54;0.20;;;0.20;;
46713;SDS011;32445;51.376;10.874;2023-04-24T14:17:54;0.20;;;0.20;;
46713;SDS011;32445;51.376;10.874;2023-04-24T14:20:54;0.27;;;0.20;;
46713;SDS011;32445;51.376;10.874;2023-04-24T14:23:55;0.20;;;0.20;;
46713;SDS011;32445;51.376;10.874;2023-04-24T14:26:55;0.63;;;0.10;;
46713;SDS011;32445;51.376;10.874;2023-04-24T14:29:56;2.10;;;1.00;;
46713;SDS011;32445;51.376;10.874;2023-04-24T14:32:56;0.27;;;0.27;;
46713;SDS011;32445;51.376;10.874;2023-04-24T14:35:57;1.13;;;0.60;;
46713;SDS011;32445;51.376;10.874;2023-04-24T14:38:57;0.13;;;0.13;;
46713;SDS011;32445;51.376;10.874;2023-04-24T14:41:57;0.10;;;0.10;;
46713;SDS011;32445;51.376;10.874;2023-04-24T14:44:58;2.03;;;0.20;;
46713;SDS011;32445;51.376;10.874;2023-04-24T14:47:58;0.10;;;0.10;;
46713;SDS011;32445;51.376;10.874;2023-04-24T14:50:58;0.30;;;0.30;;
46713;SDS011;32445;51.376;10.874;2023-04-24T14:53:59;0.20;;;0.20;;
46713;SDS011;32445;51.376;10.874;2023-04-24T14:56:59;0.17;;;0.17;;
46713;SDS011;32445;51.376;10.874;2023-04-24T15:00:01;0.20;;;0.20;;
46713;SDS011;32445;51.376;10.874;2023-04-24T15:03:03;0.52;;;0.20;;
46713;SDS011;32445;51.376;10.874;2023-04-24T15:06:04;0.20;;;0.20;;
46713;SDS011;32445;51.376;10.874;2023-04-24T15:09:04;0.20;;;0.20;;
46713;SDS011;32445;51.376;10.874;2023-04-24T15:12:05;1.50;;;0.20;;
46713;SDS011;32445;51.376;10.874;2023-04-24T15:15:06;0.33;;;0.33;;
46713;SDS011;32445;51.376;10.874;2023-04-24T15:18:08;0.35;;;0.35;;
46713;SDS011;32445;51.376;10.874;2023-04-24T15:21:11;0.30;;;0.30;;
46713;SDS011;32445;51.376;10.874;2023-04-24T15:24:12;0.30;;;0.30;;
46713;SDS011;32445;51.376;10.874;2023-04-24T15:27:13;0.73;;;0.57;;
46713;SDS011;32445;51.376;10.874;2023-04-24T15:30:13;1.37;;;0.93;;
46713;SDS011;32445;51.376;10.874;2023-04-24T15:33:14;0.50;;;0.50;;
46713;SDS011;32445;51.376;10.874;2023-04-24T15:36:14;0.50;;;0.50;;
46713;SDS011;32445;51.376;10.874;2023-04-24T15:39:15;0.40;;;0.40;;
46713;SDS011;32445;51.376;10.874;2023-04-24T15:42:16;0.70;;;0.70;;
46713;SDS011;32445;51.376;10.874;2023-04-24T15:45:16;0.93;;;0.60;;
46713;SDS011;32445;51.376;10.874;2023-04-24T15:48:16;0.43;;;0.40;;
46713;SDS011;32445;51.376;10.874;2023-04-24T15:51:18;0.75;;;0.75;;
46713;SDS011;32445;51.376;10.874;2023-04-24T15:54:18;0.83;;;0.50;;
46713;SDS011;32445;51.376;10.874;2023-04-24T15:57:18;0.73;;;0.73;;
46713;SDS011;32445;51.376;10.874;2023-04-24T16:00:20;0.70;;;0.55;;
46713;SDS011;32445;51.376;10.874;2023-04-24T16:03:20;0.40;;;0.40;;
46713;SDS011;32445;51.376;10.874;2023-04-24T16:06:22;0.30;;;0.30;;
46713;SDS011;32445;51.376;10.874;2023-04-24T16:09:22;0.40;;;0.40;;
46713;SDS011;32445;51.376;10.874;2023-04-24T16:12:22;0.60;;;0.60;;
46713;SDS011;32445;51.376;10.874;2023-04-24T16:15:26;0.50;;;0.50;;
46713;SDS011;32445;51.376;10.874;2023-04-24T16:18:27;0.80;;;0.80;;
46713;SDS011;32445;51.376;10.874;2023-04-24T16:21:27;0.50;;;0.50;;
46713;SDS011;32445;51.376;10.874;2023-04-24T16:24:28;0.50;;;0.50;;
46713;SDS011;32445;51.376;10.874;2023-04-24T16:27:28;0.60;;;0.60;;
46713;SDS011;32445;51.376;10.874;2023-04-24T16:30:29;0.53;;;0.53;;
46713;SDS011;32445;51.376;10.874;2023-04-24T16:33:30;0.50;;;0.50;;
46713;SDS011;32445;51.376;10.874;2023-04-24T16:36:30;0.50;;;0.50;;
46713;SDS011;32445;51.376;10.874;2023-04-24T16:39:31;2.10;;;0.60;;
46713;SDS011;32445;51.376;10.874;2023-04-24T16:42:31;0.60;;;0.60;;
46713;SDS011;32445;51.376;10.874;2023-04-24T16:45:32;2.20;;;0.87;;
46713;SDS011;32445;51.376;10.874;2023-04-24T16:48:32;0.97;;;0.70;;
46713;SDS011;32445;51.376;10.874;2023-04-24T16:51:33;0.97;;;0.97;;
46713;SDS011;32445;51.376;10.874;2023-04-24T16:54:33;1.80;;;1.00;;
46713;SDS011;32445;51.376;10.874;2023-04-24T16:57:34;1.30;;;0.93;;
46713;SDS011;32445;51.376;10.874;2023-04-24T17:00:35;0.90;;;0.90;;
46713;SDS011;32445;51.376;10.874;2023-04-24T17:03:36;1.00;;;0.85;;
46713;SDS011;32445;51.376;10.874;2023-04-24T17:06:37;1.50;;;1.40;;
46713;SDS011;32445;51.376;10.874;2023-04-24T17:09:37;1.97;;;1.17;;
46713;SDS011;32445;51.376;10.874;2023-04-24T17:12:37;1.63;;;1.53;;
46713;SDS011;32445;51.376;10.874;2023-04-24T17:15:38;2.13;;;1.30;;
46713;SDS011;32445;51.376;10.874;2023-04-24T17:18:39;1.77;;;1.40;;
46713;SDS011;32445;51.376;10.874;2023-04-24T17:21:39;2.37;;;1.77;;
46713;SDS011;32445;51.376;10.874;2023-04-24T17:24:40;3.30;;;3.00;;
46713;SDS011;32445;51.376;10.874;2023-04-24T17:27:40;3.10;;;2.83;;
46713;SDS011;32445;51.376;10.874;2023-04-24T17:30:40;2.80;;;2.40;;
46713;SDS011;32445;51.376;10.874;2023-04-24T17:33:41;2.77;;;2.43;;
46713;SDS011;32445;51.376;10.874;2023-04-24T17:36:41;2.30;;;2.07;;
46713;SDS011;32445;51.376;10.874;2023-04-24T17:39:41;1.97;;;1.70;;
46713;SDS011;32445;51.376;10.874;2023-04-24T17:42:42;3.30;;;2.27;;
46713;SDS011;32445;51.376;10.874;2023-04-24T17:45:51;3.53;;;2.70;;
46713;SDS011;32445;51.376;10.874;2023-04-24T17:48:55;4.85;;;3.00;;
46713;SDS011;32445;51.376;10.874;2023-04-24T17:51:56;4.13;;;2.50;;
46713;SDS011;32445;51.376;10.874;2023-04-24T17:54:56;4.70;;;2.67;;
46713;SDS011;32445;51.376;10.874;2023-04-24T17:57:56;3.23;;;2.83;;
46713;SDS011;32445;51.376;10.874;2023-04-24T18:00:57;3.67;;;2.50;;
46713;SDS011;32445;51.376;10.874;2023-04-24T18:03:57;4.28;;;2.50;;
46713;SDS011;32445;51.376;10.874;2023-04-24T18:06:57;7.35;;;3.05;;
46713;SDS011;32445;51.376;10.874;2023-04-24T18:09:58;4.38;;;2.55;;
46713;SDS011;32445;51.376;10.874;2023-04-24T18:12:59;3.53;;;2.63;;
46713;SDS011;32445;51.376;10.874;2023-04-24T18:15:59;4.07;;;3.10;;
46713;SDS011;32445;51.376;10.874;2023-04-24T18:18:59;3.37;;;3.07;;
46713;SDS011;32445;51.376;10.874;2023-04-24T18:22:00;4.67;;;3.43;;
46713;SDS011;32445;51.376;10.874;2023-04-24T18:25:00;3.40;;;2.80;;
46713;SDS011;32445;51.376;10.874;2023-04-24T18:28:00;3.60;;;2.67;;
46713;SDS011;32445;51.376;10.874;2023-04-24T18:31:01;4.87;;;3.37;;
46713;SDS011;32445;51.376;10.874;2023-04-24T18:34:01;3.83;;;3.00;;
46713;SDS011;32445;51.376;10.874;2023-04-24T18:37:02;2.85;;;2.42;;
46713;SDS011;32445;51.376;10.874;2023-04-24T18:40:02;3.10;;;2.80;;
46713;SDS011;32445;51.376;10.874;2023-04-24T18:43:02;4.40;;;2.60;;
46713;SDS011;32445;51.376;10.874;2023-04-24T18:46:03;4.43;;;3.87;;
46713;SDS011;32445;51.376;10.874;2023-04-24T18:49:03;4.28;;;2.67;;
46713;SDS011;32445;51.376;10.874;2023-04-24T18:52:03;3.50;;;3.15;;
46713;SDS011;32445;51.376;10.874;2023-04-24T18:55:04;3.90;;;3.50;;
46713;SDS011;32445;51.376;10.874;2023-04-24T18:58:05;3.25;;;2.95;;
46713;SDS011;32445;51.376;10.874;2023-04-24T19:01:06;4.80;;;2.97;;
46713;SDS011;32445;51.376;10.874;2023-04-24T19:04:06;4.45;;;2.78;;
46713;SDS011;32445;51.376;10.874;2023-04-24T19:07:06;5.18;;;2.28;;
46713;SDS011;32445;51.376;10.874;2023-04-24T19:10:07;5.10;;;4.35;;
46713;SDS011;32445;51.376;10.874;2023-04-24T19:13:08;4.90;;;2.80;;
46713;SDS011;32445;51.376;10.874;2023-04-24T19:16:08;4.00;;;3.27;;
46713;SDS011;32445;51.376;10.874;2023-04-24T19:19:08;3.75;;;2.40;;
46713;SDS011;32445;51.376;10.874;2023-04-24T19:22:09;4.18;;;3.15;;
46713;SDS011;32445;51.376;10.874;2023-04-24T19:25:09;3.70;;;3.35;;
46713;SDS011;32445;51.376;10.874;2023-04-24T19:28:10;5.22;;;3.80;;
46713;SDS011;32445;51.376;10.874;2023-04-24T19:31:11;9.33;;;3.50;;
46713;SDS011;32445;51.376;10.874;2023-04-24T19:34:11;2.45;;;2.25;;
46713;SDS011;32445;51.376;10.874;2023-04-24T19:37:11;2.70;;;2.30;;
46713;SDS011;32445;51.376;10.874;2023-04-24T19:40:12;2.10;;;1.85;;
46713;SDS011;32445;51.376;10.874;2023-04-24T19:43:12;2.67;;;1.87;;
46713;SDS011;32445;51.376;10.874;2023-04-24T19:46:13;8.50;;;3.13;;
46713;SDS011;32445;51.376;10.874;2023-04-24T19:49:13;2.10;;;1.80;;
46713;SDS011;32445;51.376;10.874;2023-04-24T19:52:15;2.58;;;1.95;;
46713;SDS011;32445;51.376;10.874;2023-04-24T19:55:15;5.00;;;2.53;;
46713;SDS011;32445;51.376;10.874;2023-04-24T19:58:15;3.53;;;1.95;;
46713;SDS011;32445;51.376;10.874;2023-04-24T20:01:16;5.10;;;2.58;;
46713;SDS011;32445;51.376;10.874;2023-04-24T20:04:16;3.17;;;2.00;;
46713;SDS011;32445;51.376;10.874;2023-04-24T20:07:20;2.33;;;1.85;;
46713;SDS011;32445;51.376;10.874;2023-04-24T20:10:20;4.35;;;2.08;;
46713;SDS011;32445;51.376;10.874;2023-04-24T20:13:21;2.13;;;1.98;;
46713;SDS011;32445;51.376;10.874;2023-04-24T20:16:22;2.33;;;2.13;;
46713;SDS011;32445;51.376;10.874;2023-04-24T20:19:22;4.95;;;2.33;;
46713;SDS011;32445;51.376;10.874;2023-04-24T20:22:22;1.93;;;1.70;;
46713;SDS011;32445;51.376;10.874;2023-04-24T20:25:23;2.45;;;2.25;;
46713;SDS011;32445;51.376;10.874;2023-04-24T20:28:24;2.97;;;1.90;;
46713;SDS011;32445;51.376;10.874;2023-04-24T20:34:25;2.35;;;1.85;;
46713;SDS011;32445;51.376;10.874;2023-04-24T20:37:26;2.67;;;1.50;;
46713;SDS011;32445;51.376;10.874;2023-04-24T20:40:28;3.28;;;2.38;;
46713;SDS011;32445;51.376;10.874;2023-04-24T20:43:28;1.73;;;1.63;;
46713;SDS011;32445;51.376;10.874;2023-04-24T20:46:29;3.53;;;1.80;;
46713;SDS011;32445;51.376;10.874;2023-04-24T20:49:29;2.10;;;1.90;;
46713;SDS011;32445;51.376;10.874;2023-04-24T20:52:30;4.15;;;2.10;;
46713;SDS011;32445;51.376;10.874;2023-04-24T20:55:30;2.15;;;1.85;;
46713;SDS011;32445;51.376;10.874;2023-04-24T20:58:31;1.90;;;1.55;;
46713;SDS011;32445;51.376;10.874;2023-04-24T21:01:31;3.05;;;2.03;;
46713;SDS011;32445;51.376;10.874;2023-04-24T21:04:32;2.33;;;1.77;;
46713;SDS011;32445;51.376;10.874;2023-04-24T21:07:36;3.30;;;1.60;;
46713;SDS011;32445;51.376;10.874;2023-04-24T21:10:37;2.08;;;1.95;;
46713;SDS011;32445;51.376;10.874;2023-04-24T21:13:37;4.43;;;1.95;;
46713;SDS011;32445;51.376;10.874;2023-04-24T21:16:37;3.47;;;2.10;;
46713;SDS011;32445;51.376;10.874;2023-04-24T21:19:38;3.47;;;1.88;;
46713;SDS011;32445;51.376;10.874;2023-04-24T21:22:38;4.05;;;2.10;;
46713;SDS011;32445;51.376;10.874;2023-04-24T21:25:38;2.17;;;2.03;;
46713;SDS011;32445;51.376;10.874;2023-04-24T21:28:39;1.85;;;1.73;;
46713;SDS011;32445;51.376;10.874;2023-04-24T21:31:39;1.75;;;1.65;;
46713;SDS011;32445;51.376;10.874;2023-04-24T21:34:39;2.47;;;2.15;;
46713;SDS011;32445;51.376;10.874;2023-04-24T21:37:40;2.25;;;2.05;;
46713;SDS011;32445;51.376;10.874;2023-04-24T21:40:41;3.08;;;2.00;;
46713;SDS011;32445;51.376;10.874;2023-04-24T21:43:41;2.15;;;1.95;;
46713;SDS011;32445;51.376;10.874;2023-04-24T21:46:42;1.95;;;1.75;;
46713;SDS011;32445;51.376;10.874;2023-04-24T21:49:43;4.65;;;2.33;;
46713;SDS011;32445;51.376;10.874;2023-04-24T21:52:43;1.70;;;1.60;;
46713;SDS011;32445;51.376;10.874;2023-04-24T21:55:43;2.67;;;1.70;;
46713;SDS011;32445;51.376;10.874;2023-04-24T21:58:45;1.90;;;1.80;;
46713;SDS011;32445;51.376;10.874;2023-04-24T22:01:46;2.30;;;1.75;;
46713;SDS011;32445;51.376;10.874;2023-04-24T22:04:46;2.60;;;1.58;;
46713;SDS011;32445;51.376;10.874;2023-04-24T22:07:47;3.50;;;1.63;;
46713;SDS011;32445;51.376;10.874;2023-04-24T22:10:47;1.83;;;1.65;;
46713;SDS011;32445;51.376;10.874;2023-04-24T22:13:48;4.25;;;1.73;;
46713;SDS011;32445;51.376;10.874;2023-04-24T22:16:48;2.47;;;2.08;;
46713;SDS011;32445;51.376;10.874;2023-04-24T22:19:49;2.75;;;2.55;;
46713;SDS011;32445;51.376;10.874;2023-04-24T22:22:50;2.87;;;2.07;;
46713;SDS011;32445;51.376;10.874;2023-04-24T22:25:51;3.33;;;2.00;;
46713;SDS011;32445;51.376;10.874;2023-04-24T22:28:51;3.05;;;1.77;;
46713;SDS011;32445;51.376;10.874;2023-04-24T22:31:52;2.33;;;2.13;;
46713;SDS011;32445;51.376;10.874;2023-04-24T22:34:55;2.72;;;2.30;;
46713;SDS011;32445;51.376;10.874;2023-04-24T22:37:55;2.00;;;1.85;;
46713;SDS011;32445;51.376;10.874;2023-04-24T22:40:57;2.30;;;2.10;;
46713;SDS011;32445;51.376;10.874;2023-04-24T22:43:57;3.95;;;1.88;;
46713;SDS011;32445;51.376;10.874;2023-04-24T22:46:58;2.90;;;1.83;;
46713;SDS011;32445;51.376;10.874;2023-04-24T22:49:58;3.47;;;2.70;;
46713;SDS011;32445;51.376;10.874;2023-04-24T22:52:58;2.72;;;2.53;;
46713;SDS011;32445;51.376;10.874;2023-04-24T22:55:59;4.03;;;2.40;;
46713;SDS011;32445;51.376;10.874;2023-04-24T22:58:59;3.00;;;2.80;;
46713;SDS011;32445;51.376;10.874;2023-04-24T23:02:00;3.15;;;2.83;;
46713;SDS011;32445;51.376;10.874;2023-04-24T23:05:00;3.17;;;2.70;;
46713;SDS011;32445;51.376;10.874;2023-04-24T23:08:00;6.43;;;3.75;;
46713;SDS011;32445;51.376;10.874;2023-04-24T23:11:01;4.60;;;3.30;;
46713;SDS011;32445;51.376;10.874;2023-04-24T23:14:01;3.17;;;2.97;;
46713;SDS011;32445;51.376;10.874;2023-04-24T23:17:02;6.70;;;3.97;;
46713;SDS011;32445;51.376;10.874;2023-04-24T23:20:03;5.10;;;2.95;;
46713;SDS011;32445;51.376;10.874;2023-04-24T23:23:04;7.60;;;3.53;;
46713;SDS011;32445;51.376;10.874;2023-04-24T23:26:05;4.43;;;4.03;;
46713;SDS011;32445;51.376;10.874;2023-04-24T23:29:05;3.50;;;3.20;;
46713;SDS011;32445;51.376;10.874;2023-04-24T23:32:05;3.50;;;3.20;;
46713;SDS011;32445;51.376;10.874;2023-04-24T23:35:06;3.67;;;3.15;;
46713;SDS011;32445;51.376;10.874;2023-04-24T23:38:07;3.85;;;3.50;;
46713;SDS011;32445;51.376;10.874;2023-04-24T23:41:08;3.28;;;2.85;;
46713;SDS011;32445;51.376;10.874;2023-04-24T23:44:08;3.33;;;3.05;;
46713;SDS011;32445;51.376;10.874;2023-04-24T23:47:09;2.80;;;2.60;;
46713;SDS011;32445;51.376;10.874;2023-04-24T23:50:09;5.40;;;3.92;;
46713;SDS011;32445;51.376;10.874;2023-04-24T23:53:10;3.90;;;2.80;;
46713;SDS011;32445;51.376;10.874;2023-04-24T23:56:10;5.50;;;3.08;;
46713;SDS011;32445;51.376;10.874;2023-04-24T23:59:10;4.90;;;3.45;;
